Estación Meteorológica Peña el Pijo (Robertgarden) [ 04/23/17 10:01:01 CEST ]

Fecha Hora Presion(HPa) Temp (°C) Humedad % Rocio (°C) Viento ( m/s) Direccion Lluvia 1Hora(mm) Lluvia 24H(mm) LLuvia Total(mm)
2017-Mar-27 01:01:20 1005.900 5.5 67 -0.1         1356.12
2017-Mar-27 02:01:14 1007.200 7.9 65 1.7         1356.12
2017-Mar-27 03:01:39 1006.200 5.8 75 1.7 3.3 ENE 0.51 0.51 1356.64
2017-Mar-27 04:01:36 1006.100 4.7 76 0.8       0.51 1356.64
2017-Mar-27 05:01:34 1006.200 3.5 78 0.0       0.51 1356.64
2017-Mar-27 06:01:37 1006.400 2.4 79 -0.9       0.51 1356.64
2017-Mar-27 07:01:39 1006.600 2.6 82 -0.2       0.51 1356.64
2017-Mar-27 08:01:11 1007.500 4.4 81 1.4     0.51 1.03 1357.16
2017-Mar-27 09:01:11 1009.100 4.9 81 1.9       1.03 1357.16
2017-Mar-27 10:01:06 1009.900 6.2 76 2.3       1.03 1357.16
2017-Mar-27 11:01:11 1010.400 8.1 69 2.8       1.03 1357.16
2017-Mar-27 12:01:11 1011.000 10.8 60 3.3 2.2 SW   1.03 1357.16
2017-Mar-27 13:01:41 1011.200 10.4 60 3.0 0.9 NW   1.03 1357.16
2017-Mar-27 14:02:07 1011.300 13.3 53 3.9 1.8 WNW   1.03 1357.16
2017-Mar-27 15:01:49 1011.000 14.9 47 3.6       1.03 1357.16
2017-Mar-27 16:01:40 1010.600 16.8 43 4.1       1.03 1357.16
2017-Mar-27 17:01:47 1010.400 17.5 39 3.3       1.03 1357.16
2017-Mar-27 18:01:52 1010.700 16.1 40 2.5       1.03 1357.16
2017-Mar-27 19:01:48 1010.800 14.0 46 2.5       1.03 1357.16
2017-Mar-27 20:01:54 1011.400 11.6 53 2.3       1.03 1357.16
2017-Mar-27 21:01:42 1012.000 9.5 59 1.9       1.03 1357.16
2017-Mar-27 22:01:40 1013.000 8.4 66 2.4       1.03 1357.16
2017-Mar-27 23:02:00 1013.900 8.3 68 2.7       1.03 1357.16

Temperatura Máxima:17°    Temperatura Mínima:
Presión Máxima:1013.900 Hpa    Presión Mínima:1005.900 Hpa


Volver